Time;durP1;ratioP1;P1;durP2;ratioP2;P2;SDS_P1;SDS_P2;PMS_P1;PMS_P2;Temp;Humidity;BMP_temperature;BMP_pressure;BME280_temperature;BME280_humidity;BME280_pressure;Samples;Min_cycle;Max_cycle;Signal;HPM_P1;HPM_P2
2021/07/22 00:00:10;;;;;;;16.40;10.60;;;19.30;75.80;;;;;;5034941;28;20033;-48
2021/07/22 00:02:36;;;;;;;15.27;9.93;;;19.30;75.80;;;;;;5034920;28;20504;-48
2021/07/22 00:05:04;;;;;;;15.43;10.45;;;19.40;75.30;;;;;;5033542;28;20033;-48
2021/07/22 00:07:30;;;;;;;14.23;10.00;;;19.40;75.30;;;;;;5034757;28;20022;-54
2021/07/22 00:09:56;;;;;;;19.58;10.65;;;19.40;75.30;;;;;;5034694;28;20535;-48
2021/07/22 00:12:21;;;;;;;13.90;10.13;;;19.30;75.80;;;;;;5033433;28;20056;-52
2021/07/22 00:14:47;;;;;;;17.77;10.93;;;19.20;76.20;;;;;;5034649;28;20025;-50
2021/07/22 00:17:12;;;;;;;16.90;11.15;;;19.10;76.40;;;;;;5034624;28;20021;-48
2021/07/22 00:19:38;;;;;;;17.08;10.38;;;19.20;76.30;;;;;;5034728;28;20033;-49
2021/07/22 00:22:04;;;;;;;17.48;10.55;;;19.10;76.80;;;;;;5033184;28;20029;-49
2021/07/22 00:24:30;;;;;;;15.02;10.20;;;19.00;76.80;;;;;;5034769;28;20025;-51
2021/07/22 00:26:56;;;;;;;13.50;8.90;;;19.00;76.50;;;;;;5034188;28;20124;-48
2021/07/22 00:29:22;;;;;;;17.20;11.18;;;19.00;76.60;;;;;;5034756;28;20069;-48
2021/07/22 00:31:48;;;;;;;20.23;11.23;;;19.00;76.30;;;;;;5034265;28;20026;-48
2021/07/22 00:34:14;;;;;;;14.23;10.60;;;19.20;74.10;;;;;;5034192;28;20020;-48
2021/07/22 00:36:39;;;;;;;18.45;11.68;;;19.30;73.40;;;;;;5034239;28;20036;-50
2021/07/22 00:39:05;;;;;;;17.30;11.13;;;19.20;72.90;;;;;;5034324;28;20029;-52
2021/07/22 00:41:38;;;;;;;16.23;10.48;;;19.20;72.80;;;;;;5034036;28;20037;-48
2021/07/22 00:44:04;;;;;;;17.98;11.30;;;19.20;71.90;;;;;;5034289;28;20030;-47
2021/07/22 00:46:30;;;;;;;19.77;11.20;;;19.20;71.70;;;;;;5033923;28;20036;-48
2021/07/22 00:48:55;;;;;;;17.70;11.23;;;19.10;72.00;;;;;;5034125;28;20474;-48
2021/07/22 00:51:21;;;;;;;19.55;11.88;;;19.10;71.80;;;;;;5034351;28;20104;-48
2021/07/22 00:53:46;;;;;;;20.98;12.05;;;19.00;72.10;;;;;;5034007;28;20017;-47
2021/07/22 00:56:12;;;;;;;17.02;11.30;;;18.90;72.60;;;;;;5033874;28;20353;-49
2021/07/22 00:58:38;;;;;;;19.83;11.27;;;19.00;72.90;;;;;;5033757;28;20125;-50
2021/07/22 01:01:04;;;;;;;16.40;10.85;;;19.00;73.10;;;;;;5033499;28;20061;-52
2021/07/22 01:03:29;;;;;;;20.73;11.27;;;18.80;73.50;;;;;;5032099;28;20484;-48
2021/07/22 01:05:55;;;;;;;19.27;12.10;;;18.70;74.10;;;;;;5032175;28;20029;-47
2021/07/22 01:08:20;;;;;;;17.40;11.82;;;18.80;73.30;;;;;;5033445;28;20032;-47
2021/07/22 01:10:46;;;;;;;14.43;10.77;;;18.80;73.40;;;;;;5033560;28;20032;-46
2021/07/22 01:13:12;;;;;;;18.50;10.48;;;18.80;73.60;;;;;;5033801;28;20466;-47
2021/07/22 01:15:38;;;;;;;16.75;10.32;;;18.80;74.20;;;;;;5033227;28;20124;-47
2021/07/22 01:18:03;;;;;;;17.35;10.65;;;18.60;75.70;;;;;;5033319;28;20021;-49
2021/07/22 01:20:29;;;;;;;20.27;10.82;;;18.50;76.50;;;;;;5033222;28;20380;-49
2021/07/22 01:22:57;;;;;;;14.27;10.20;;;18.60;76.30;;;;;;5032977;28;20152;-47
2021/07/22 01:25:24;;;;;;;14.15;10.25;;;18.50;76.60;;;;;;5032942;28;20036;-48
2021/07/22 01:27:51;;;;;;;15.18;10.00;;;18.40;77.00;;;;;;5032665;28;20519;-49
2021/07/22 01:30:17;;;;;;;19.70;11.65;;;18.30;77.20;;;;;;5032896;28;20053;-49
2021/07/22 01:32:43;;;;;;;16.13;9.20;;;18.40;77.10;;;;;;5033121;28;20029;-51
2021/07/22 01:35:10;;;;;;;15.50;9.07;;;18.30;77.50;;;;;;5033409;28;20032;-48
2021/07/22 01:37:40;;;;;;;21.42;10.40;;;18.30;77.60;;;;;;5032969;28;20108;-46
2021/07/22 01:40:07;;;;;;;16.63;10.73;;;18.30;77.70;;;;;;5033104;28;20108;-47
2021/07/22 01:42:33;;;;;;;15.13;9.25;;;18.20;78.20;;;;;;5033229;28;20029;-48
2021/07/22 01:44:58;;;;;;;16.02;10.32;;;18.20;78.40;;;;;;5033322;28;20385;-46
2021/07/22 01:47:24;;;;;;;15.93;10.75;;;18.20;78.30;;;;;;5032761;28;20021;-46
2021/07/22 01:49:51;;;;;;;17.58;10.30;;;18.20;78.60;;;;;;5032666;28;20112;-51
2021/07/22 01:52:16;;;;;;;16.92;10.38;;;18.20;78.80;;;;;;5032424;28;20036;-49
2021/07/22 01:54:42;;;;;;;18.05;10.55;;;18.20;78.60;;;;;;5031162;28;20108;-48
2021/07/22 01:57:08;;;;;;;17.00;10.07;;;18.10;78.50;;;;;;5033232;28;20032;-48
2021/07/22 01:59:36;;;;;;;14.77;10.93;;;18.10;78.30;;;;;;5032418;28;20026;-49
2021/07/22 02:02:04;;;;;;;21.40;10.57;;;18.20;78.90;;;;;;5032303;28;20033;-48
2021/07/22 02:04:30;;;;;;;19.55;10.82;;;18.20;79.00;;;;;;5032638;28;20033;-48
2021/07/22 02:06:55;;;;;;;19.50;10.45;;;18.20;79.50;;;;;;5032257;28;20377;-47
2021/07/22 02:09:21;;;;;;;14.55;9.70;;;18.10;79.80;;;;;;5033886;28;20384;-48
2021/07/22 02:11:47;;;;;;;13.85;9.43;;;18.10;80.40;;;;;;5036561;28;20025;-49
2021/07/22 02:14:12;;;;;;;16.63;10.18;;;18.00;80.60;;;;;;5036458;28;20036;-47
2021/07/22 02:16:41;;;;;;;19.60;11.13;;;18.00;80.00;;;;;;5036423;28;20454;-50
2021/07/22 02:19:07;;;;;;;17.92;10.63;;;18.00;79.80;;;;;;5036532;28;20033;-47
2021/07/22 02:21:33;;;;;;;16.23;9.80;;;18.00;79.60;;;;;;5036223;28;20078;-46
2021/07/22 02:23:59;;;;;;;17.08;10.73;;;18.00;79.70;;;;;;5036183;28;20022;-49
2021/07/22 02:26:24;;;;;;;13.25;9.82;;;18.10;79.80;;;;;;5036211;28;20450;-47
2021/07/22 02:28:53;;;;;;;16.42;11.25;;;18.10;79.60;;;;;;5036210;28;20021;-48
2021/07/22 02:31:19;;;;;;;20.63;9.98;;;18.00;79.90;;;;;;5036260;28;20326;-48
2021/07/22 02:33:44;;;;;;;16.77;10.27;;;18.00;79.80;;;;;;5036594;28;20014;-50
2021/07/22 02:36:10;;;;;;;16.13;10.40;;;17.90;79.70;;;;;;5036012;28;20135;-50
2021/07/22 02:38:36;;;;;;;19.73;10.32;;;17.90;79.60;;;;;;5036353;28;20021;-51
2021/07/22 02:41:04;;;;;;;16.55;10.98;;;17.90;80.10;;;;;;5035931;28;20099;-47
2021/07/22 02:43:30;;;;;;;13.40;9.05;;;17.80;80.10;;;;;;5036198;28;20033;-48
2021/07/22 02:45:56;;;;;;;12.88;9.65;;;17.80;80.40;;;;;;5036118;28;20124;-47
2021/07/22 02:48:21;;;;;;;19.88;10.15;;;17.80;80.70;;;;;;5035771;28;20025;-48
2021/07/22 02:50:47;;;;;;;14.85;10.07;;;17.80;80.00;;;;;;5035549;28;20067;-49
2021/07/22 02:53:13;;;;;;;14.27;10.52;;;17.80;80.00;;;;;;5035718;28;20167;-50
2021/07/22 02:55:38;;;;;;;18.15;10.43;;;17.80;80.20;;;;;;5035599;28;20028;-48
2021/07/22 02:58:05;;;;;;;15.57;11.27;;;17.80;80.00;;;;;;5036010;28;20025;-48
2021/07/22 03:00:31;;;;;;;20.40;10.75;;;17.80;80.20;;;;;;5034129;28;20116;-48
2021/07/22 03:03:03;;;;;;;15.77;10.23;;;18.00;79.40;;;;;;5035508;28;20445;-48
2021/07/22 03:05:31;;;;;;;20.60;10.93;;;18.00;78.80;;;;;;5035694;28;20025;-50
2021/07/22 03:07:59;;;;;;;19.90;11.07;;;17.80;79.10;;;;;;5035668;28;20025;-49
2021/07/22 03:10:25;;;;;;;20.92;12.00;;;17.80;79.40;;;;;;5034086;28;20057;-47
2021/07/22 03:12:52;;;;;;;19.27;12.02;;;17.70;79.20;;;;;;5035370;28;20052;-48
2021/07/22 03:15:18;;;;;;;16.73;10.90;;;17.70;79.20;;;;;;5033893;28;20021;-47
2021/07/22 03:17:44;;;;;;;19.42;11.70;;;17.90;78.40;;;;;;5035415;28;20078;-48
2021/07/22 03:20:10;;;;;;;22.95;11.52;;;18.10;77.50;;;;;;5035144;28;20041;-47
2021/07/22 03:22:36;;;;;;;27.40;14.95;;;18.10;77.20;;;;;;5035471;28;20028;-48
2021/07/22 03:25:02;;;;;;;21.40;11.30;;;17.80;78.60;;;;;;5035595;28;20025;-46
2021/07/22 03:27:27;;;;;;;16.33;10.05;;;17.80;78.50;;;;;;5034843;28;20053;-48
2021/07/22 03:29:53;;;;;;;19.65;11.68;;;17.80;78.80;;;;;;5035906;28;20365;-46
2021/07/22 03:32:18;;;;;;;14.75;11.02;;;17.80;79.00;;;;;;5035119;28;20057;-51
2021/07/22 03:34:44;;;;;;;20.48;12.13;;;17.70;79.30;;;;;;5034930;28;20508;-48
2021/07/22 03:37:10;;;;;;;16.83;10.85;;;17.60;79.40;;;;;;5034854;28;20026;-47
2021/07/22 03:39:35;;;;;;;17.60;11.85;;;17.60;79.60;;;;;;5034732;28;20102;-46
2021/07/22 03:42:01;;;;;;;22.42;13.30;;;17.70;79.30;;;;;;5035067;28;20053;-48
2021/07/22 03:44:27;;;;;;;17.92;11.73;;;17.70;78.90;;;;;;5034714;28;20025;-49
2021/07/22 03:46:52;;;;;;;20.77;11.60;;;17.80;78.70;;;;;;5033321;28;20033;-48
2021/07/22 03:49:18;;;;;;;20.17;11.88;;;17.80;78.70;;;;;;5034670;28;20061;-51
2021/07/22 03:51:43;;;;;;;21.55;12.60;;;17.90;78.20;;;;;;5034578;28;20022;-47
2021/07/22 03:54:09;;;;;;;16.73;10.55;;;17.80;78.80;;;;;;5034572;28;20449;-48
2021/07/22 03:56:35;;;;;;;16.58;11.32;;;17.70;78.70;;;;;;5034770;28;20021;-49
2021/07/22 03:59:00;;;;;;;16.35;10.63;;;17.80;78.70;;;;;;5034608;28;20362;-46
2021/07/22 04:01:26;;;;;;;17.23;11.13;;;17.80;78.30;;;;;;5034419;28;20033;-46
2021/07/22 04:03:54;;;;;;;19.08;11.85;;;17.80;78.50;;;;;;5034593;28;20522;-51
2021/07/22 04:06:21;;;;;;;16.33;10.88;;;17.70;78.70;;;;;;5034645;28;20121;-49
2021/07/22 04:08:46;;;;;;;17.13;10.27;;;17.60;78.60;;;;;;5034232;28;20025;-48
2021/07/22 04:11:12;;;;;;;16.35;11.05;;;17.50;79.50;;;;;;5034327;28;20021;-48
2021/07/22 04:13:38;;;;;;;16.52;10.82;;;17.50;79.60;;;;;;5034248;28;20038;-50
2021/07/22 04:16:04;;;;;;;17.50;11.23;;;17.60;79.30;;;;;;5034357;28;20087;-52
2021/07/22 04:18:30;;;;;;;21.20;12.25;;;17.50;79.90;;;;;;5016901;28;20432;-48
2021/07/22 04:20:56;;;;;;;15.02;11.00;;;17.50;79.20;;;;;;5034372;28;20049;-47
2021/07/22 04:23:22;;;;;;;21.40;11.70;;;17.50;79.20;;;;;;5034767;28;20504;-47
2021/07/22 04:25:48;;;;;;;20.63;12.35;;;17.60;79.00;;;;;;5034512;28;20108;-49
2021/07/22 04:28:13;;;;;;;19.63;11.75;;;17.80;78.00;;;;;;5034288;28;20037;-49
2021/07/22 04:30:39;;;;;;;20.48;10.93;;;17.60;78.80;;;;;;5034309;28;20033;-52
2021/07/22 04:33:06;;;;;;;17.40;10.57;;;17.60;79.20;;;;;;5033751;28;20051;-48
2021/07/22 04:35:31;;;;;;;17.40;11.43;;;17.60;78.90;;;;;;5034136;28;20363;-51
2021/07/22 04:37:57;;;;;;;18.80;12.35;;;17.60;79.40;;;;;;5032888;28;20164;-50
2021/07/22 04:40:23;;;;;;;24.45;12.65;;;17.60;79.20;;;;;;5034164;28;20052;-48
2021/07/22 04:42:48;;;;;;;20.40;11.50;;;17.60;79.50;;;;;;5034648;28;20112;-48
2021/07/22 04:45:14;;;;;;;17.95;12.10;;;17.70;79.20;;;;;;5034309;28;20496;-49
2021/07/22 04:47:40;;;;;;;17.42;11.38;;;17.50;79.20;;;;;;5034677;28;20449;-50
2021/07/22 04:50:07;;;;;;;17.83;11.00;;;17.50;79.10;;;;;;5034176;28;20180;-47
2021/07/22 04:52:33;;;;;;;17.52;10.75;;;17.50;78.80;;;;;;5033970;28;20021;-48
2021/07/22 04:54:58;;;;;;;21.63;11.85;;;17.60;78.80;;;;;;5034139;28;20024;-46
2021/07/22 04:57:24;;;;;;;23.35;12.32;;;17.80;77.70;;;;;;5034346;28;20034;-47
2021/07/22 04:59:50;;;;;;;19.70;11.07;;;17.90;77.30;;;;;;5034589;28;20469;-51
2021/07/22 05:02:16;;;;;;;20.55;12.63;;;17.90;77.20;;;;;;5034013;28;20416;-50
2021/07/22 05:04:42;;;;;;;16.67;11.75;;;17.80;77.30;;;;;;5033753;28;20457;-50
2021/07/22 05:07:07;;;;;;;16.98;10.85;;;17.80;77.70;;;;;;5033668;28;20040;-51
2021/07/22 05:09:33;;;;;;;15.32;9.98;;;17.80;77.50;;;;;;5033431;28;20033;-49
2021/07/22 05:11:59;;;;;;;16.90;10.52;;;18.00;77.20;;;;;;5033472;28;20025;-46
2021/07/22 05:14:24;;;;;;;22.95;12.30;;;18.00;77.30;;;;;;5033476;28;20093;-47
2021/07/22 05:16:50;;;;;;;18.67;11.52;;;17.80;77.50;;;;;;5033697;28;20377;-47
2021/07/22 05:19:15;;;;;;;13.13;10.50;;;17.80;77.50;;;;;;5033310;28;20474;-47
2021/07/22 05:21:42;;;;;;;20.98;11.27;;;17.80;77.50;;;;;;5032017;28;20433;-46
2021/07/22 05:24:07;;;;;;;17.40;11.23;;;18.00;76.90;;;;;;5033389;28;20040;-52
2021/07/22 05:26:33;;;;;;;15.45;11.70;;;17.90;77.00;;;;;;5033037;28;20485;-47
2021/07/22 05:28:59;;;;;;;18.63;10.98;;;18.20;75.60;;;;;;5033125;28;20461;-47
2021/07/22 05:31:24;;;;;;;18.77;11.05;;;18.30;75.00;;;;;;5032964;28;20424;-46
2021/07/22 05:33:50;;;;;;;18.38;11.07;;;18.60;74.10;;;;;;5033078;28;20084;-48
2021/07/22 05:36:16;;;;;;;16.38;10.48;;;18.40;74.80;;;;;;5033031;28;20051;-45
2021/07/22 05:38:56;;;;;;;17.00;11.35;;;18.30;75.00;;;;;;5033252;28;20032;-45
2021/07/22 05:41:22;;;;;;;18.40;10.77;;;18.70;73.80;;;;;;5033257;28;20030;-51
2021/07/22 05:43:47;;;;;;;16.45;10.40;;;18.70;73.70;;;;;;5032301;28;20484;-47
2021/07/22 05:46:18;;;;;;;17.40;11.10;;;18.50;74.60;;;;;;5032590;28;20032;-48
2021/07/22 05:48:43;;;;;;;21.63;12.43;;;18.70;74.10;;;;;;5032897;28;20026;-50
2021/07/22 05:51:09;;;;;;;19.75;12.70;;;18.80;73.70;;;;;;5032682;28;20117;-47
2021/07/22 05:53:34;;;;;;;19.77;12.90;;;18.80;74.20;;;;;;5032745;28;20033;-46
2021/07/22 05:56:00;;;;;;;23.83;12.32;;;19.10;73.20;;;;;;5032701;28;20061;-46
2021/07/22 05:58:27;;;;;;;21.02;13.38;;;18.80;73.90;;;;;;5032705;28;20029;-47
2021/07/22 06:00:53;;;;;;;30.05;13.65;;;18.70;74.30;;;;;;5032914;28;20025;-49
2021/07/22 06:03:18;;;;;;;24.55;13.57;;;19.00;73.30;;;;;;5032747;28;20359;-47
2021/07/22 06:05:44;;;;;;;21.33;12.88;;;18.60;74.40;;;;;;5032918;28;20033;-47
2021/07/22 06:08:10;;;;;;;33.95;14.23;;;18.50;75.30;;;;;;5031018;28;20040;-51
2021/07/22 06:10:37;;;;;;;16.15;11.45;;;18.50;75.80;;;;;;5032744;28;20072;-53
2021/07/22 06:13:03;;;;;;;26.95;12.50;;;18.80;75.30;;;;;;5014873;28;20030;-50
2021/07/22 06:15:28;;;;;;;28.83;13.32;;;18.90;74.50;;;;;;5032518;28;20037;-51
2021/07/22 06:17:54;;;;;;;22.63;12.95;;;18.90;74.30;;;;;;5032146;28;20381;-47
2021/07/22 06:20:19;;;;;;;24.25;13.18;;;19.20;74.00;;;;;;5032424;28;20041;-48
2021/07/22 06:22:45;;;;;;;22.13;12.00;;;19.40;72.70;;;;;;5031148;28;20499;-47
2021/07/22 06:25:15;;;;;;;24.48;12.27;;;19.70;71.60;;;;;;5032454;28;20474;-46
2021/07/22 06:27:41;;;;;;;21.13;11.07;;;19.90;71.40;;;;;;5032076;28;20132;-51
2021/07/22 06:30:08;;;;;;;17.30;11.48;;;20.20;69.60;;;;;;5032117;28;20540;-46
2021/07/22 06:32:33;;;;;;;21.35;11.93;;;20.30;69.50;;;;;;5031602;28;20021;-46
2021/07/22 06:34:59;;;;;;;15.98;11.13;;;20.30;69.50;;;;;;5032219;28;20098;-46
2021/07/22 06:37:25;;;;;;;18.48;10.45;;;20.30;69.30;;;;;;5032164;28;20033;-47
2021/07/22 06:39:50;;;;;;;19.40;11.75;;;20.50;68.20;;;;;;5031818;28;20033;-48
2021/07/22 06:42:16;;;;;;;19.75;12.88;;;20.20;69.30;;;;;;5032289;28;20028;-48
2021/07/22 06:44:42;;;;;;;16.48;11.05;;;20.30;69.50;;;;;;5032685;28;20477;-49
2021/07/22 06:47:07;;;;;;;19.80;11.02;;;20.40;69.40;;;;;;5032827;28;20072;-49
2021/07/22 06:49:33;;;;;;;20.40;10.55;;;20.30;69.50;;;;;;5032749;28;20025;-50
2021/07/22 06:52:06;;;;;;;17.73;11.50;;;20.70;69.10;;;;;;5032022;28;20021;-53
2021/07/22 06:54:32;;;;;;;15.45;10.85;;;20.80;67.90;;;;;;5033192;28;20532;-48
2021/07/22 06:56:58;;;;;;;23.70;11.20;;;20.70;68.20;;;;;;5035979;28;20025;-51
2021/07/22 06:59:23;;;;;;;21.85;11.27;;;20.80;67.70;;;;;;5034361;28;20099;-48
2021/07/22 07:01:49;;;;;;;19.80;11.32;;;21.10;66.60;;;;;;5035901;28;20037;-48
2021/07/22 07:04:14;;;;;;;19.30;11.15;;;21.20;65.90;;;;;;5035521;28;20029;-46
2021/07/22 07:06:40;;;;;;;19.52;10.70;;;21.10;66.60;;;;;;5035438;28;20026;-49
2021/07/22 07:09:06;;;;;;;15.38;9.80;;;21.00;66.80;;;;;;5035491;28;20334;-50
2021/07/22 07:11:35;;;;;;;19.80;11.00;;;21.10;66.50;;;;;;5035712;28;20060;-49
2021/07/22 07:14:01;;;;;;;14.30;10.13;;;21.20;66.50;;;;;;5034490;28;20064;-49
2021/07/22 07:16:27;;;;;;;20.75;12.07;;;21.40;65.30;;;;;;5035397;28;20061;-48
2021/07/22 07:18:52;;;;;;;16.13;10.98;;;21.40;64.60;;;;;;5035116;28;20076;-49
2021/07/22 07:21:18;;;;;;;19.73;11.55;;;21.40;64.90;;;;;;5035057;28;20025;-51
2021/07/22 07:23:44;;;;;;;24.15;11.65;;;21.40;64.90;;;;;;5035102;28;20504;-48
2021/07/22 07:26:11;;;;;;;22.95;13.13;;;21.40;64.40;;;;;;5035221;28;20034;-50
2021/07/22 07:28:37;;;;;;;20.73;12.15;;;21.70;63.90;;;;;;5033628;28;20033;-48
2021/07/22 07:31:03;;;;;;;36.05;14.07;;;21.70;63.30;;;;;;5035252;28;20104;-47
2021/07/22 07:33:29;;;;;;;23.73;12.68;;;21.70;63.20;;;;;;5035483;28;20472;-50
2021/07/22 07:35:55;;;;;;;20.48;12.60;;;21.80;62.40;;;;;;5034835;28;20036;-51
2021/07/22 07:38:21;;;;;;;29.15;15.65;;;22.00;61.00;;;;;;5033522;28;20358;-47
2021/07/22 07:40:47;;;;;;;21.60;12.65;;;21.90;61.90;;;;;;5033820;28;20033;-51
2021/07/22 07:43:15;;;;;;;25.08;13.63;;;22.10;60.50;;;;;;5035032;28;20029;-52
2021/07/22 07:45:41;;;;;;;19.52;12.60;;;22.40;59.50;;;;;;5034710;28;20516;-51
2021/07/22 07:48:07;;;;;;;23.35;13.70;;;22.30;60.20;;;;;;5034571;28;20064;-48
2021/07/22 07:50:32;;;;;;;25.45;13.57;;;22.20;60.50;;;;;;5034647;28;20480;-48
2021/07/22 07:52:58;;;;;;;24.27;13.65;;;21.80;61.80;;;;;;5034270;28;20033;-48
2021/07/22 07:55:23;;;;;;;24.58;13.90;;;21.70;62.20;;;;;;5034461;28;20025;-51
2021/07/22 07:57:49;;;;;;;23.15;13.65;;;22.00;61.40;;;;;;5034337;28;20032;-47
2021/07/22 08:00:15;;;;;;;21.55;12.98;;;22.20;60.80;;;;;;5034278;28;20079;-48
2021/07/22 08:02:41;;;;;;;23.17;13.40;;;22.00;60.90;;;;;;5034002;28;20064;-48
2021/07/22 08:05:07;;;;;;;22.67;13.52;;;21.90;61.10;;;;;;5034214;28;20049;-48
2021/07/22 08:07:34;;;;;;;20.80;13.88;;;22.30;60.80;;;;;;5033427;28;20030;-50
2021/07/22 08:10:00;;;;;;;23.88;13.77;;;22.40;60.30;;;;;;5034352;28;20069;-50
2021/07/22 08:12:25;;;;;;;21.48;13.57;;;23.00;58.70;;;;;;5033855;28;20056;-47
2021/07/22 08:14:51;;;;;;;27.95;14.88;;;23.50;56.90;;;;;;5034174;28;20033;-50
2021/07/22 08:17:21;;;;;;;29.90;17.48;;;23.00;58.50;;;;;;5033926;28;20036;-48
2021/07/22 08:19:48;;;;;;;28.60;16.58;;;23.00;58.00;;;;;;5032610;28;20075;-50
2021/07/22 08:22:13;;;;;;;28.58;16.17;;;22.80;57.80;;;;;;5032892;28;20097;-48
2021/07/22 08:24:39;;;;;;;25.88;16.80;;;22.80;57.60;;;;;;5032481;28;20037;-50
2021/07/22 08:27:05;;;;;;;30.00;16.63;;;23.20;56.30;;;;;;5033551;28;20107;-52
2021/07/22 08:29:32;;;;;;;26.75;17.88;;;23.30;56.10;;;;;;5032255;28;20022;-50
2021/07/22 08:31:58;;;;;;;32.72;16.50;;;23.40;55.30;;;;;;5032229;28;20046;-53
2021/07/22 08:34:24;;;;;;;30.48;16.77;;;23.30;55.10;;;;;;5015821;28;20111;-51
2021/07/22 08:36:52;;;;;;;35.33;15.80;;;24.10;53.80;;;;;;5033535;28;20025;-48
2021/07/22 08:39:19;;;;;;;33.58;17.10;;;23.60;55.00;;;;;;5033210;28;20025;-49
2021/07/22 08:41:46;;;;;;;34.83;17.40;;;23.90;54.10;;;;;;5032281;28;20029;-50
2021/07/22 08:44:13;;;;;;;27.75;16.02;;;24.30;53.40;;;;;;5033596;28;20449;-49
2021/07/22 08:46:45;;;;;;;28.75;16.02;;;24.50;53.10;;;;;;5033282;28;20470;-50
2021/07/22 08:49:11;;;;;;;38.42;17.60;;;25.40;50.30;;;;;;5033516;28;20448;-49
2021/07/22 08:51:37;;;;;;;28.58;16.83;;;25.80;49.20;;;;;;5033253;28;20026;-49
2021/07/22 08:54:03;;;;;;;30.35;17.17;;;25.90;48.00;;;;;;5033101;28;20384;-51
2021/07/22 08:56:31;;;;;;;26.92;16.65;;;26.50;46.50;;;;;;5032999;28;20021;-48
2021/07/22 08:58:58;;;;;;;28.88;16.85;;;26.30;47.40;;;;;;5033240;28;20030;-50
2021/07/22 09:01:28;;;;;;;27.52;16.35;;;25.70;48.80;;;;;;5031961;28;20026;-50
2021/07/22 09:03:56;;;;;;;;;;;25.90;47.80;;;;;;5034156;28;20029;-49
2021/07/22 09:06:22;;;;;;;29.70;16.83;;;25.80;48.10;;;;;;5031665;28;19944;-51
2021/07/22 09:08:48;;;;;;;26.83;16.40;;;24.60;50.60;;;;;;5033228;28;20080;-49
2021/07/22 09:11:13;;;;;;;29.85;17.10;;;25.20;48.90;;;;;;5033389;28;20123;-51
2021/07/22 09:13:39;;;;;;;29.08;17.27;;;25.50;48.10;;;;;;5033149;28;20025;-53
2021/07/22 09:16:06;;;;;;;26.88;16.60;;;26.20;46.10;;;;;;5031477;28;20032;-50
2021/07/22 09:18:39;;;;;;;27.55;17.83;;;26.50;46.00;;;;;;5032590;28;20021;-52
2021/07/22 09:21:23;;;;;;;26.42;17.17;;;26.90;45.70;;;;;;5032829;28;20041;-50
2021/07/22 09:24:09;;;;;;;28.25;16.38;;;28.10;43.00;;;;;;5032771;28;20027;-51
2021/07/22 09:26:40;;;;;;;24.80;15.32;;;27.80;42.80;;;;;;5032457;28;20080;-50
2021/07/22 09:29:08;;;;;;;24.35;16.05;;;28.10;42.60;;;;;;5033388;28;20048;-51
2021/07/22 09:31:35;;;;;;;27.23;15.25;;;28.10;42.10;;;;;;5036588;28;20085;-51
2021/07/22 09:34:01;;;;;;;24.95;14.75;;;28.30;41.70;;;;;;5034151;28;20017;-52
2021/07/22 09:36:31;;;;;;;27.33;14.23;;;27.30;43.50;;;;;;5034349;28;20025;-55
2021/07/22 09:39:17;;;;;;;27.90;16.40;;;26.50;46.00;;;;;;5035803;28;20029;-48
2021/07/22 09:41:45;;;;;;;22.65;14.35;;;25.50;49.30;;;;;;5034562;28;20057;-50
2021/07/22 09:44:30;;;;;;;20.65;14.10;;;26.90;45.20;;;;;;5034834;28;20063;-51
2021/07/22 09:46:58;;;;;;;20.02;13.20;;;26.80;44.90;;;;;;5036066;28;20025;-48
2021/07/22 09:49:32;;;;;;;22.98;15.55;;;26.30;46.20;;;;;;5035105;28;20374;-48
2021/07/22 09:52:01;;;;;;;19.33;14.98;;;26.00;46.90;;;;;;5035007;28;20024;-53
2021/07/22 09:54:35;;;;;;;23.60;13.85;;;26.40;46.90;;;;;;5032274;28;20022;-49
2021/07/22 09:57:03;;;;;;;22.45;14.68;;;26.70;46.40;;;;;;5032778;28;20030;-49
2021/07/22 09:59:30;;;;;;;29.63;14.57;;;26.30;46.50;;;;;;5032151;28;20036;-50
2021/07/22 10:02:03;;;;;;;22.15;14.77;;;25.40;48.70;;;;;;5031043;28;20048;-50
2021/07/22 10:04:30;;;;;;;29.42;15.93;;;25.30;49.50;;;;;;5030894;28;20036;-52
2021/07/22 10:07:02;;;;;;;24.00;15.07;;;25.70;48.50;;;;;;5032660;28;20032;-48
2021/07/22 10:09:33;;;;;;;26.27;16.20;;;25.80;48.00;;;;;;5032587;28;20104;-49
2021/07/22 10:12:01;;;;;;;24.73;17.20;;;26.20;47.50;;;;;;5032241;28;20017;-47
2021/07/22 10:14:28;;;;;;;26.13;15.52;;;25.90;48.00;;;;;;5031852;28;20014;-48
2021/07/22 10:16:57;;;;;;;23.35;15.95;;;26.80;46.20;;;;;;5032066;28;20409;-53
2021/07/22 10:19:24;;;;;;;24.52;16.20;;;25.40;49.20;;;;;;5032571;28;20057;-49
2021/07/22 10:21:50;;;;;;;30.67;16.17;;;25.30;49.70;;;;;;5032225;28;20029;-49
2021/07/22 10:24:16;;;;;;;26.33;14.93;;;25.40;48.90;;;;;;5032195;28;20018;-52
2021/07/22 10:26:43;;;;;;;29.67;17.90;;;25.60;48.70;;;;;;5032161;28;20612;-51
2021/07/22 10:29:09;;;;;;;25.00;17.33;;;25.70;48.40;;;;;;5032132;28;20033;-50
2021/07/22 10:31:41;;;;;;;25.63;17.55;;;25.40;48.80;;;;;;5035909;28;20026;-51
2021/07/22 10:34:10;;;;;;;26.88;16.77;;;25.90;47.30;;;;;;5018347;28;20067;-52
2021/07/22 10:36:37;;;;;;;26.58;15.13;;;25.80;47.50;;;;;;5035937;28;20018;-50
2021/07/22 10:39:03;;;;;;;25.88;16.63;;;26.30;46.40;;;;;;5034502;28;20025;-50
2021/07/22 10:41:40;;;;;;;31.15;17.20;;;27.50;43.40;;;;;;5036099;28;20018;-51
2021/07/22 10:44:31;;;;;;;28.08;18.70;;;27.70;43.00;;;;;;5035165;28;20432;-52
2021/07/22 10:46:59;;;;;;;32.50;18.35;;;27.50;43.20;;;;;;5035367;28;20504;-50
2021/07/22 10:49:39;;;;;;;24.30;16.35;;;28.30;42.20;;;;;;5034907;28;20065;-52
2021/07/22 10:52:06;;;;;;;20.15;15.07;;;27.40;43.50;;;;;;5036399;28;20035;-51
2021/07/22 10:54:52;;;;;;;29.20;16.17;;;27.90;43.00;;;;;;5018179;28;20400;-49
2021/07/22 10:57:37;;;;;;;31.60;16.83;;;27.90;42.20;;;;;;5035779;28;20029;-50
2021/07/22 11:00:10;;;;;;;21.77;15.70;;;26.90;44.70;;;;;;5035776;28;20353;-48
2021/07/22 11:02:41;;;;;;;24.83;16.77;;;28.20;41.90;;;;;;5035329;28;20079;-48
2021/07/22 11:05:07;;;;;;;22.95;17.13;;;27.50;43.20;;;;;;5035438;28;20385;-48
2021/07/22 11:07:33;;;;;;;25.75;16.65;;;27.30;44.10;;;;;;5035746;28;20033;-49
2021/07/22 11:09:59;;;;;;;23.90;17.50;;;27.10;44.70;;;;;;5035622;28;20376;-48
2021/07/22 11:12:44;;;;;;;23.67;17.17;;;27.00;44.70;;;;;;5035799;28;20025;-47
2021/07/22 11:15:37;;;;;;;24.30;15.85;;;26.60;45.50;;;;;;5035290;28;20025;-47
2021/07/22 11:18:43;;;;;;;27.88;16.88;;;26.40;46.30;;;;;;5034365;28;20057;-48
2021/07/22 11:21:13;;;;;;;29.73;17.63;;;26.40;47.30;;;;;;5038164;28;20029;-47
2021/07/22 11:23:40;;;;;;;26.10;15.27;;;25.60;49.60;;;;;;5035431;28;20465;-50
2021/07/22 11:26:06;;;;;;;24.02;16.52;;;25.80;49.10;;;;;;5035347;28;20028;-51
2021/07/22 11:28:32;;;;;;;22.05;16.00;;;26.00;48.60;;;;;;5035203;28;20037;-49
2021/07/22 11:31:05;;;;;;;25.00;18.65;;;25.80;49.40;;;;;;5034928;28;20079;-52
2021/07/22 11:33:39;;;;;;;27.27;18.30;;;25.40;50.10;;;;;;5033315;28;20024;-49
2021/07/22 11:36:17;;;;;;;29.80;17.42;;;26.60;47.90;;;;;;5034670;28;20095;-50
2021/07/22 11:38:49;;;;;;;26.67;18.63;;;26.80;47.70;;;;;;5034941;28;20032;-47
2021/07/22 11:41:15;;;;;;;25.73;17.67;;;28.30;43.70;;;;;;5032336;28;20454;-49
2021/07/22 11:43:42;;;;;;;23.67;16.48;;;27.60;44.80;;;;;;5033380;28;20120;-48
2021/07/22 11:46:13;;;;;;;18.58;14.75;;;29.30;41.70;;;;;;5034492;28;20488;-50
2021/07/22 11:48:40;;;;;;;18.00;13.45;;;29.10;43.00;;;;;;5034576;28;20078;-50
2021/07/22 11:51:07;;;;;;;21.77;13.20;;;27.80;45.60;;;;;;5034780;28;20466;-48
2021/07/22 11:53:33;;;;;;;19.70;11.90;;;27.30;46.50;;;;;;5033529;28;20017;-49
2021/07/22 11:56:13;;;;;;;19.25;13.35;;;26.80;47.70;;;;;;5035066;28;20104;-51
2021/07/22 11:58:40;;;;;;;19.23;13.45;;;26.80;47.50;;;;;;5033740;28;20021;-52
2021/07/22 12:01:08;;;;;;;19.13;12.63;;;26.30;48.80;;;;;;5035098;28;20045;-49
2021/07/22 12:03:35;;;;;;;18.20;11.98;;;25.90;48.80;;;;;;5034778;28;20033;-49
2021/07/22 12:06:00;;;;;;;15.75;11.35;;;26.70;47.90;;;;;;5035071;28;20030;-50
2021/07/22 12:08:26;;;;;;;15.25;10.30;;;28.30;43.80;;;;;;5034697;28;20120;-50
2021/07/22 12:10:58;;;;;;;16.35;10.77;;;28.50;42.50;;;;;;5033462;28;20026;-50
2021/07/22 12:13:24;;;;;;;13.55;9.07;;;28.90;41.20;;;;;;5034422;28;20030;-49
2021/07/22 12:15:50;;;;;;;14.13;9.52;;;29.30;40.40;;;;;;5033114;28;20128;-50
2021/07/22 12:18:19;;;;;;;16.20;11.30;;;30.20;39.10;;;;;;5032966;28;20060;-49
2021/07/22 12:20:48;;;;;;;14.20;11.20;;;29.70;40.20;;;;;;5034015;28;20432;-49
2021/07/22 12:23:31;;;;;;;15.27;10.32;;;28.30;43.60;;;;;;5032957;28;20035;-52
2021/07/22 12:26:04;;;;;;;15.93;10.32;;;27.10;47.10;;;;;;5033253;28;20064;-48
2021/07/22 12:28:31;;;;;;;15.93;9.85;;;27.20;47.50;;;;;;5032847;28;20469;-49